createdAt,value
2019-02-07T00:00:38.538Z,5.30
2019-02-07T00:03:07.891Z,5.30
2019-02-07T00:05:37.169Z,5.30
2019-02-07T00:08:06.752Z,5.20
2019-02-07T00:10:36.411Z,5.30
2019-02-07T00:13:06.661Z,5.30
2019-02-07T00:15:37.092Z,5.30
2019-02-07T00:18:06.641Z,5.30
2019-02-07T00:20:35.924Z,5.30
2019-02-07T00:23:05.352Z,5.30
2019-02-07T00:25:35.435Z,5.30
2019-02-07T00:28:05.149Z,5.30
2019-02-07T00:30:34.755Z,5.30
2019-02-07T00:33:04.043Z,5.30
2019-02-07T00:35:33.557Z,5.30
2019-02-07T00:38:02.852Z,5.30
2019-02-07T00:40:32.205Z,5.30
2019-02-07T00:43:01.489Z,5.30
2019-02-07T00:45:31.074Z,5.40
2019-02-07T00:48:00.783Z,5.40
2019-02-07T00:50:31.145Z,5.40
2019-02-07T00:53:00.613Z,5.40
2019-02-07T00:55:29.898Z,5.30
2019-02-07T00:57:59.419Z,5.40
2019-02-07T01:00:30.139Z,5.40
2019-02-07T01:02:59.434Z,5.40
2019-02-07T01:05:28.704Z,5.40
2019-02-07T01:07:58.465Z,5.40
2019-02-07T01:10:29.917Z,5.30
2019-02-07T01:12:59.274Z,5.20
2019-02-07T01:15:29.185Z,5.10
2019-02-07T01:17:58.559Z,5.00
2019-02-07T01:20:28.047Z,4.90
2019-02-07T01:22:58.266Z,4.90
2019-02-07T01:25:27.533Z,4.80
2019-02-07T01:27:57.379Z,4.60
2019-02-07T01:30:27.913Z,4.60
2019-02-07T01:32:57.633Z,4.50
2019-02-07T01:35:26.989Z,4.50
2019-02-07T01:37:56.723Z,4.40
2019-02-07T01:40:27.191Z,4.30
2019-02-07T01:42:56.469Z,4.20
2019-02-07T01:45:26.172Z,4.20
2019-02-07T01:47:55.777Z,4.20
2019-02-07T01:50:25.919Z,4.20
2019-02-07T01:52:55.619Z,4.10
2019-02-07T01:55:24.909Z,4.10
2019-02-07T01:57:54.267Z,4.10
2019-02-07T02:00:23.841Z,4.00
2019-02-07T02:02:53.135Z,4.00
2019-02-07T02:05:22.730Z,3.90
2019-02-07T02:07:52.379Z,3.90
2019-02-07T02:10:27.584Z,3.90
2019-02-07T02:12:57.725Z,3.80
2019-02-07T02:15:27.158Z,3.80
2019-02-07T02:17:56.439Z,3.80
2019-02-07T02:20:26.463Z,3.70
2019-02-07T02:22:56.556Z,3.70
2019-02-07T02:25:26.139Z,3.70
2019-02-07T02:27:55.484Z,3.80
2019-02-07T02:30:30.066Z,3.70
2019-02-07T02:32:59.410Z,3.70
2019-02-07T02:35:28.929Z,3.60
2019-02-07T02:37:58.216Z,3.70
2019-02-07T02:40:28.029Z,3.60
2019-02-07T02:42:57.388Z,3.70
2019-02-07T02:45:37.265Z,3.60
2019-02-07T02:47:58.892Z,3.60
2019-02-07T02:50:28.781Z,3.60
2019-02-07T02:52:58.065Z,3.60
2019-02-07T02:55:31.686Z,3.60
2019-02-07T02:58:01.019Z,3.60
2019-02-07T03:00:47.007Z,3.60
2019-02-07T03:03:23.643Z,3.60
2019-02-07T03:06:09.906Z,3.70
2019-02-07T03:08:41.207Z,3.70
2019-02-07T03:11:12.131Z,3.60
2019-02-07T03:13:43.380Z,3.60
2019-02-07T03:16:30.819Z,3.60
2019-02-07T03:19:18.324Z,3.60
2019-02-07T03:22:05.514Z,3.50
2019-02-07T03:24:52.645Z,3.50
2019-02-07T03:27:23.578Z,3.50
2019-02-07T03:30:10.765Z,3.50
2019-02-07T03:32:44.678Z,3.50
2019-02-07T03:35:25.623Z,3.40
2019-02-07T03:37:59.242Z,3.50
2019-02-07T03:40:39.565Z,3.50
2019-02-07T03:43:29.095Z,3.50
2019-02-07T03:46:15.551Z,3.50
2019-02-07T03:49:01.603Z,3.50
2019-02-07T03:51:48.602Z,3.50
2019-02-07T03:54:31.354Z,3.60
2019-02-07T03:57:18.545Z,3.60
2019-02-07T04:00:01.662Z,3.70
2019-02-07T04:02:32.625Z,3.70
2019-02-07T04:05:03.804Z,3.70
2019-02-07T04:07:51.099Z,3.70
2019-02-07T04:10:36.824Z,3.70
2019-02-07T04:13:24.625Z,3.70
2019-02-07T04:16:15.065Z,3.80
2019-02-07T04:18:56.434Z,3.80
2019-02-07T04:21:33.735Z,3.70
2019-02-07T04:24:04.651Z,3.70
2019-02-07T04:26:47.375Z,3.70
2019-02-07T04:29:18.290Z,3.80
2019-02-07T04:32:01.010Z,3.80
2019-02-07T04:34:48.199Z,3.70
2019-02-07T04:37:34.381Z,3.70
2019-02-07T04:40:12.183Z,3.80
2019-02-07T04:42:57.199Z,3.80
2019-02-07T04:45:34.393Z,3.70
2019-02-07T04:48:11.194Z,3.80
2019-02-07T04:50:50.987Z,3.70
2019-02-07T04:53:25.072Z,3.70
2019-02-07T04:56:11.060Z,3.70
2019-02-07T04:58:58.761Z,3.70
2019-02-07T05:01:35.607Z,3.80
2019-02-07T05:04:23.262Z,3.70
2019-02-07T05:06:54.448Z,3.70
2019-02-07T05:09:42.164Z,3.80
2019-02-07T05:12:28.227Z,3.80
2019-02-07T05:15:02.072Z,3.80
2019-02-07T05:17:41.958Z,3.80
2019-02-07T05:20:29.415Z,3.80
2019-02-07T05:23:00.522Z,3.80
2019-02-07T05:25:43.264Z,3.90
2019-02-07T05:28:30.866Z,3.90
2019-02-07T05:31:02.260Z,4.00
2019-02-07T05:33:49.646Z,4.00
2019-02-07T05:36:26.810Z,4.00
2019-02-07T05:39:00.626Z,4.00
2019-02-07T05:41:46.602Z,4.00
2019-02-07T05:44:17.537Z,4.00
2019-02-07T05:46:54.049Z,4.00
2019-02-07T05:49:25.458Z,4.00
2019-02-07T05:52:12.819Z,4.10
2019-02-07T05:54:59.965Z,4.10
2019-02-07T05:57:31.154Z,4.10
2019-02-07T06:00:20.813Z,4.10
2019-02-07T06:03:01.591Z,4.20
2019-02-07T06:05:41.871Z,4.20
2019-02-07T06:08:12.795Z,4.20
2019-02-07T06:10:43.727Z,4.20
2019-02-07T06:13:26.529Z,4.20
2019-02-07T06:16:03.221Z,4.20
2019-02-07T06:18:49.202Z,4.20
2019-02-07T06:21:29.336Z,4.30
2019-02-07T06:24:03.185Z,4.30
2019-02-07T06:26:46.255Z,4.40
2019-02-07T06:29:23.100Z,4.40
2019-02-07T06:31:54.547Z,4.40
2019-02-07T06:34:42.023Z,4.50
2019-02-07T06:37:16.065Z,4.50
2019-02-07T06:39:49.805Z,4.50
2019-02-07T06:42:20.969Z,4.60
2019-02-07T06:44:57.654Z,4.60
2019-02-07T06:47:37.914Z,4.60
2019-02-07T06:50:18.829Z,4.60
2019-02-07T06:52:50.048Z,4.60
2019-02-07T06:55:23.867Z,4.60
2019-02-07T06:57:55.085Z,4.60
2019-02-07T07:00:43.933Z,4.60
2019-02-07T07:03:31.356Z,4.70
2019-02-07T07:06:02.623Z,4.70
2019-02-07T07:08:45.990Z,4.70
2019-02-07T07:11:19.624Z,4.70
2019-02-07T07:14:07.063Z,4.70
2019-02-07T07:16:54.478Z,4.80
2019-02-07T07:19:43.354Z,4.80
2019-02-07T07:22:17.273Z,4.80
2019-02-07T07:24:51.102Z,4.80
2019-02-07T07:27:22.031Z,4.90
2019-02-07T07:30:08.324Z,4.90
2019-02-07T07:32:39.417Z,4.90
2019-02-07T07:35:28.213Z,5.00
2019-02-07T07:37:59.134Z,4.90
2019-02-07T07:40:30.058Z,4.90
2019-02-07T07:43:17.854Z,4.90
2019-02-07T07:45:57.583Z,4.90
2019-02-07T07:48:28.817Z,4.90
2019-02-07T07:51:00.373Z,4.80
2019-02-07T07:53:46.369Z,4.80
2019-02-07T07:56:22.723Z,4.80
2019-02-07T07:59:02.152Z,4.80
2019-02-07T08:01:42.450Z,4.80
2019-02-07T08:04:19.303Z,4.80
2019-02-07T08:07:08.715Z,4.80
2019-02-07T08:09:39.626Z,4.90
2019-02-07T08:12:10.559Z,4.80
2019-02-07T08:14:58.160Z,4.90
2019-02-07T08:17:35.379Z,4.90
2019-02-07T08:20:24.438Z,5.00
2019-02-07T08:22:58.310Z,4.90
2019-02-07T08:25:45.471Z,5.00
2019-02-07T08:28:16.428Z,5.00
2019-02-07T08:30:47.651Z,5.10
2019-02-07T08:33:24.325Z,5.10
2019-02-07T08:35:57.949Z,5.10
2019-02-07T08:38:28.890Z,5.10
2019-02-07T08:41:08.852Z,5.10
2019-02-07T08:43:39.777Z,5.20
2019-02-07T08:46:27.198Z,5.20
2019-02-07T08:49:00.946Z,5.20
2019-02-07T08:51:47.590Z,5.20
2019-02-07T08:54:18.514Z,5.50
2019-02-07T08:56:49.674Z,5.40
2019-02-07T08:59:38.947Z,5.40
2019-02-07T09:02:10.508Z,5.40
2019-02-07T09:04:41.465Z,5.40
2019-02-07T09:07:15.110Z,5.50
2019-02-07T09:09:54.956Z,5.40
2019-02-07T09:12:44.285Z,5.50
2019-02-07T09:15:15.632Z,5.50
2019-02-07T09:17:55.058Z,5.50
2019-02-07T09:20:42.455Z,5.50
2019-02-07T09:23:13.723Z,5.50
2019-02-07T09:25:59.707Z,5.60
2019-02-07T09:28:36.799Z,5.60
2019-02-07T09:31:20.020Z,5.70
2019-02-07T09:34:07.757Z,5.80
2019-02-07T09:36:41.380Z,6.00
2019-02-07T09:39:28.569Z,6.10
2019-02-07T09:42:16.040Z,6.20
2019-02-07T09:44:56.170Z,6.40
2019-02-07T09:47:29.803Z,6.50
2019-02-07T09:50:19.045Z,6.60
2019-02-07T09:53:05.233Z,6.70
2019-02-07T09:55:36.295Z,6.70
2019-02-07T09:58:23.793Z,6.80
2019-02-07T10:00:57.621Z,6.80
2019-02-07T10:03:31.571Z,6.90
2019-02-07T10:06:18.894Z,6.90
2019-02-07T10:08:58.455Z,7.00
2019-02-07T10:11:38.721Z,7.10
2019-02-07T10:14:22.065Z,7.10
2019-02-07T10:17:09.406Z,7.30
2019-02-07T10:19:58.624Z,7.40
2019-02-07T10:22:45.259Z,7.50
2019-02-07T10:25:16.505Z,7.60
2019-02-07T10:27:50.336Z,7.70
2019-02-07T10:30:28.274Z,7.80
2019-02-07T10:32:59.197Z,7.90
2019-02-07T10:35:46.705Z,8.10
2019-02-07T10:38:23.137Z,8.10
2019-02-07T10:41:10.918Z,8.20
2019-02-07T10:43:47.872Z,8.30
2019-02-07T10:46:21.469Z,8.30
2019-02-07T10:48:57.292Z,8.50
2019-02-07T10:51:34.187Z,8.60
2019-02-07T10:54:08.321Z,8.60
2019-02-07T10:56:57.433Z,8.70
2019-02-07T10:59:31.420Z,8.70
2019-02-07T11:02:18.745Z,8.80
2019-02-07T11:04:55.663Z,8.80
2019-02-07T11:07:26.582Z,8.90
2019-02-07T11:10:12.525Z,8.90
2019-02-07T11:12:49.722Z,8.80
2019-02-07T11:15:35.656Z,8.70
2019-02-07T11:18:23.855Z,8.60
2019-02-07T11:20:57.762Z,8.60
2019-02-07T11:23:34.486Z,8.70
2019-02-07T11:26:17.967Z,8.80
2019-02-07T11:28:48.880Z,8.90
2019-02-07T11:31:20.079Z,8.90
2019-02-07T11:34:03.287Z,8.80
2019-02-07T11:36:54.101Z,8.90
2019-02-07T11:39:29.844Z,8.90
2019-02-07T11:42:01.183Z,8.90
2019-02-07T11:44:38.029Z,9.10
2019-02-07T11:47:19.247Z,10.40
2019-02-07T11:49:50.491Z,9.90
2019-02-07T11:52:22.944Z,9.60
2019-02-07T11:55:00.033Z,9.40
2019-02-07T11:57:36.911Z,9.30
2019-02-07T12:00:14.828Z,9.30
2019-02-07T12:02:49.038Z,9.30
2019-02-07T12:05:25.697Z,9.40
2019-02-07T12:07:57.278Z,9.40
2019-02-07T12:10:30.889Z,9.60
2019-02-07T12:13:02.124Z,9.60
2019-02-07T12:15:36.951Z,9.70
2019-02-07T12:18:20.090Z,9.70
2019-02-07T12:20:53.819Z,10.30
2019-02-07T12:23:27.497Z,10.20
2019-02-07T12:26:04.274Z,10.20
2019-02-07T12:28:44.718Z,10.10
2019-02-07T12:31:15.727Z,9.90
2019-02-07T12:33:56.322Z,9.60
2019-02-07T12:36:39.593Z,9.50
2019-02-07T12:39:13.950Z,9.50
2019-02-07T12:41:50.846Z,9.80
2019-02-07T12:44:21.779Z,9.70
2019-02-07T12:47:01.480Z,9.80
2019-02-07T12:49:41.327Z,9.70
2019-02-07T12:52:21.211Z,9.70
2019-02-07T12:54:53.016Z,9.70
2019-02-07T12:57:26.594Z,9.70
2019-02-07T13:00:09.956Z,9.70
2019-02-07T13:02:46.855Z,9.80
2019-02-07T13:05:24.401Z,9.80
2019-02-07T13:07:55.794Z,9.80
2019-02-07T13:10:29.557Z,9.80
2019-02-07T13:13:03.190Z,9.70
2019-02-07T13:15:46.312Z,9.70
2019-02-07T13:18:34.326Z,9.70
2019-02-07T13:21:05.432Z,9.70
2019-02-07T13:23:39.315Z,9.70
2019-02-07T13:26:19.358Z,9.80
2019-02-07T13:28:51.522Z,9.70
2019-02-07T13:31:22.493Z,9.70
2019-02-07T13:33:53.607Z,9.70
2019-02-07T13:36:36.855Z,9.80
2019-02-07T13:39:25.981Z,9.80
2019-02-07T13:42:03.152Z,9.90
2019-02-07T13:44:37.117Z,10.00
2019-02-07T13:47:14.226Z,10.00
2019-02-07T13:50:00.171Z,10.00
2019-02-07T13:52:31.378Z,10.00
2019-02-07T13:55:02.301Z,10.10
2019-02-07T13:57:51.350Z,10.10
2019-02-07T14:00:23.436Z,10.00
2019-02-07T14:03:13.240Z,10.10
2019-02-07T14:05:52.961Z,10.30
2019-02-07T14:08:40.739Z,10.10
2019-02-07T14:11:20.675Z,10.10
2019-02-07T14:14:06.993Z,10.00
2019-02-07T14:16:37.917Z,9.90
2019-02-07T14:19:15.113Z,9.90
2019-02-07T14:21:54.744Z,9.80
2019-02-07T14:24:42.876Z,9.80
2019-02-07T14:27:22.930Z,9.80
2019-02-07T14:30:10.369Z,9.90
2019-02-07T14:32:44.670Z,9.90
2019-02-07T14:35:16.148Z,9.90
2019-02-07T14:37:49.502Z,9.90
2019-02-07T14:40:20.417Z,9.90
2019-02-07T14:42:51.599Z,9.90
2019-02-07T14:45:40.953Z,9.90
2019-02-07T14:48:12.317Z,9.90
2019-02-07T14:50:41.598Z,9.80
2019-02-07T14:53:11.128Z,9.80
2019-02-07T14:55:40.409Z,9.70
2019-02-07T14:58:09.692Z,9.70
2019-02-07T15:00:39.226Z,9.70
2019-02-07T15:03:08.601Z,9.70
2019-02-07T15:05:38.036Z,9.70
2019-02-07T15:08:07.541Z,9.70
2019-02-07T15:10:36.826Z,9.60
2019-02-07T15:13:06.168Z,9.70
2019-02-07T15:15:35.437Z,9.60
2019-02-07T15:18:05.359Z,9.50
2019-02-07T15:20:34.647Z,9.60
2019-02-07T15:23:04.185Z,9.60
2019-02-07T15:25:33.458Z,9.50
2019-02-07T15:28:02.725Z,9.50
2019-02-07T15:30:32.273Z,9.40
2019-02-07T15:33:01.885Z,9.40
2019-02-07T15:35:34.366Z,9.40
2019-02-07T15:38:04.007Z,9.40
2019-02-07T15:40:33.347Z,9.40
2019-02-07T15:43:02.695Z,9.40
2019-02-07T15:45:31.968Z,9.30
2019-02-07T15:48:01.583Z,9.30
2019-02-07T15:50:37.530Z,9.20
2019-02-07T15:53:03.517Z,9.20
2019-02-07T15:55:32.812Z,9.20
2019-02-07T15:58:02.154Z,9.20
2019-02-07T16:00:51.110Z,9.30
2019-02-07T16:03:22.025Z,9.20
2019-02-07T16:05:51.297Z,9.20
2019-02-07T16:08:20.575Z,9.20
2019-02-07T16:10:50.177Z,9.20
2019-02-07T16:13:19.440Z,9.20
2019-02-07T16:15:49.121Z,9.20
2019-02-07T16:18:18.398Z,9.20
2019-02-07T16:20:49.203Z,9.20
2019-02-07T16:23:18.711Z,9.20
2019-02-07T16:25:48.430Z,9.20
2019-02-07T16:28:20.282Z,9.20
2019-02-07T16:30:49.090Z,9.10
2019-02-07T16:33:18.361Z,9.20
2019-02-07T16:35:47.649Z,9.10
2019-02-07T16:38:16.909Z,9.00
2019-02-07T16:40:46.270Z,9.00
2019-02-07T16:43:15.611Z,8.90
2019-02-07T16:45:46.247Z,8.90
2019-02-07T16:48:16.506Z,8.90
2019-02-07T16:50:46.779Z,8.80
2019-02-07T16:53:16.062Z,8.80
2019-02-07T16:55:45.670Z,8.80
2019-02-07T16:58:14.945Z,8.80
2019-02-07T17:00:44.484Z,8.80
2019-02-07T17:03:14.100Z,8.90
2019-02-07T17:05:43.400Z,8.90
2019-02-07T17:08:13.014Z,8.80
2019-02-07T17:10:42.294Z,8.70
2019-02-07T17:13:13.585Z,8.50
2019-02-07T17:15:42.943Z,8.20
2019-02-07T17:18:12.302Z,8.10
2019-02-07T17:20:41.961Z,8.10
2019-02-07T17:23:11.236Z,8.10
2019-02-07T17:25:40.571Z,8.10
2019-02-07T17:28:11.189Z,8.00
2019-02-07T17:30:40.545Z,8.00
2019-02-07T17:33:10.792Z,8.00
2019-02-07T17:35:40.080Z,8.00
2019-02-07T17:38:09.631Z,8.00
2019-02-07T17:40:38.915Z,8.00
2019-02-07T17:43:08.361Z,7.90
2019-02-07T17:45:37.906Z,7.90
2019-02-07T17:48:07.541Z,7.80
2019-02-07T17:50:39.336Z,7.90
2019-02-07T17:53:13.415Z,7.90
2019-02-07T17:55:43.031Z,7.90
2019-02-07T17:58:13.046Z,7.90
2019-02-07T18:00:53.110Z,8.00
2019-02-07T18:03:22.574Z,7.90
2019-02-07T18:05:51.851Z,7.90
2019-02-07T18:08:21.505Z,8.00
2019-02-07T18:10:51.288Z,8.00
2019-02-07T18:13:20.931Z,8.10
2019-02-07T18:15:50.215Z,8.00
2019-02-07T18:18:19.670Z,8.00
2019-02-07T18:20:48.941Z,8.10
2019-02-07T18:23:18.547Z,8.10
2019-02-07T18:25:48.166Z,8.00
2019-02-07T18:28:17.496Z,7.90
2019-02-07T18:30:46.973Z,7.90
2019-02-07T18:33:16.252Z,7.90
2019-02-07T18:35:45.603Z,7.90
2019-02-07T18:38:14.895Z,7.90
2019-02-07T18:40:44.550Z,7.90
2019-02-07T18:43:13.924Z,8.00
2019-02-07T18:45:43.536Z,7.90
2019-02-07T18:48:13.211Z,7.90
2019-02-07T18:50:43.003Z,7.90
2019-02-07T18:53:12.291Z,7.80
2019-02-07T18:55:42.426Z,7.70
2019-02-07T18:58:11.720Z,7.60
2019-02-07T19:00:41.334Z,7.60
2019-02-07T19:03:10.689Z,7.60
2019-02-07T19:05:40.006Z,7.60
2019-02-07T19:08:10.526Z,7.60
2019-02-07T19:10:40.694Z,7.60
2019-02-07T19:13:09.977Z,7.60
2019-02-07T19:15:42.665Z,7.60
2019-02-07T19:18:12.016Z,7.60
2019-02-07T19:20:41.603Z,7.50
2019-02-07T19:23:10.935Z,7.60
2019-02-07T19:25:40.596Z,7.50
2019-02-07T19:28:09.879Z,7.50
2019-02-07T19:30:39.300Z,7.60
2019-02-07T19:33:08.587Z,7.60
2019-02-07T19:35:38.210Z,7.60
2019-02-07T19:38:07.469Z,7.50
2019-02-07T19:40:37.286Z,7.50
2019-02-07T19:43:06.819Z,7.40
2019-02-07T19:45:36.426Z,7.40
2019-02-07T19:48:06.047Z,7.40
2019-02-07T19:50:35.399Z,7.40
2019-02-07T19:53:05.124Z,7.40
2019-02-07T19:55:35.169Z,7.40
2019-02-07T19:58:05.291Z,7.30
2019-02-07T20:00:35.854Z,7.30
2019-02-07T20:03:05.583Z,7.30
2019-02-07T20:05:34.927Z,7.20
2019-02-07T20:08:04.552Z,7.20
2019-02-07T20:10:34.556Z,7.20
2019-02-07T20:13:03.912Z,7.10
2019-02-07T20:15:35.426Z,7.00
2019-02-07T20:18:07.559Z,7.00
2019-02-07T20:20:37.385Z,7.00
2019-02-07T20:23:06.663Z,7.00
2019-02-07T20:25:36.217Z,7.00
2019-02-07T20:28:05.975Z,7.10
2019-02-07T20:30:41.042Z,7.10
2019-02-07T20:33:10.374Z,7.10
2019-02-07T20:35:40.153Z,7.10
2019-02-07T20:38:10.066Z,7.10
2019-02-07T20:40:40.275Z,7.10
2019-02-07T20:43:09.750Z,7.10
2019-02-07T20:45:39.039Z,7.10
2019-02-07T20:48:08.922Z,7.10
2019-02-07T20:50:38.211Z,7.10
2019-02-07T20:53:07.501Z,7.10
2019-02-07T20:55:36.796Z,7.00
2019-02-07T20:58:07.052Z,7.00
2019-02-07T21:00:39.719Z,7.00
2019-02-07T21:03:09.327Z,7.00
2019-02-07T21:05:38.935Z,7.00
2019-02-07T21:08:08.209Z,7.00
2019-02-07T21:10:39.080Z,7.00
2019-02-07T21:13:08.996Z,6.90
2019-02-07T21:15:38.610Z,7.00
2019-02-07T21:18:07.889Z,7.00
2019-02-07T21:20:37.164Z,7.00
2019-02-07T21:23:07.132Z,7.00
2019-02-07T21:25:42.632Z,7.00
2019-02-07T21:28:12.584Z,7.00
2019-02-07T21:30:42.173Z,6.90
2019-02-07T21:33:11.467Z,7.00
2019-02-07T21:35:40.772Z,7.00
2019-02-07T21:38:10.145Z,7.00
2019-02-07T21:40:39.466Z,7.00
2019-02-07T21:43:09.146Z,6.90
2019-02-07T21:45:38.491Z,7.00
2019-02-07T21:48:09.018Z,6.90
2019-02-07T21:50:38.465Z,6.90
2019-02-07T21:53:08.820Z,6.90
2019-02-07T21:55:38.432Z,6.90
2019-02-07T21:58:09.058Z,6.90
2019-02-07T22:00:40.944Z,6.90
2019-02-07T22:03:11.970Z,7.00
2019-02-07T22:05:41.340Z,7.00
2019-02-07T22:08:10.638Z,7.00
2019-02-07T22:10:40.142Z,7.00
2019-02-07T22:13:09.951Z,7.00
2019-02-07T22:15:39.235Z,6.90
2019-02-07T22:18:09.555Z,7.00
2019-02-07T22:20:39.153Z,6.90
2019-02-07T22:23:08.432Z,6.90
2019-02-07T22:25:37.777Z,6.90
2019-02-07T22:28:08.300Z,6.90
2019-02-07T22:30:38.154Z,6.90
2019-02-07T22:33:08.126Z,7.00
2019-02-07T22:35:37.734Z,7.00
2019-02-07T22:38:07.348Z,7.00
2019-02-07T22:40:37.057Z,7.10
2019-02-07T22:43:07.088Z,7.00
2019-02-07T22:45:36.354Z,7.00
2019-02-07T22:48:06.487Z,7.00
2019-02-07T22:50:36.201Z,7.00
2019-02-07T22:53:06.315Z,7.00
2019-02-07T22:55:35.583Z,7.00
2019-02-07T22:58:06.181Z,7.00
2019-02-07T23:00:40.178Z,6.90
2019-02-07T23:03:18.480Z,6.90
2019-02-07T23:05:47.755Z,6.90
2019-02-07T23:08:18.250Z,6.90
2019-02-07T23:10:48.210Z,6.90
2019-02-07T23:13:17.504Z,6.90
2019-02-07T23:15:48.137Z,6.90
2019-02-07T23:18:17.758Z,6.90
2019-02-07T23:20:47.032Z,6.90
2019-02-07T23:23:16.317Z,6.90
2019-02-07T23:25:45.602Z,6.80
2019-02-07T23:28:15.655Z,6.80
2019-02-07T23:30:44.942Z,6.90
2019-02-07T23:33:14.231Z,6.90
2019-02-07T23:35:43.579Z,6.90
2019-02-07T23:38:13.181Z,6.90
2019-02-07T23:40:42.742Z,6.90
2019-02-07T23:43:12.549Z,6.80
2019-02-07T23:45:41.994Z,6.80
2019-02-07T23:48:11.510Z,6.80
2019-02-07T23:50:41.270Z,6.80
2019-02-07T23:53:14.977Z,6.70
2019-02-07T23:55:42.066Z,6.70
2019-02-07T23:58:11.579Z,6.80
